sensor_id;sensor_type;location;lat;lon;timestamp;pressure;altitude;pressure_sealevel;temperature;humidity
76311;BME280;65120;59.304;18.294;2023-06-05T00:02:22;102207.84;;;9.56;58.65
76311;BME280;65120;59.304;18.294;2023-06-05T00:04:49;102204.34;;;9.52;58.46
76311;BME280;65120;59.304;18.294;2023-06-05T00:07:16;102197.34;;;9.48;58.65
76311;BME280;65120;59.304;18.294;2023-06-05T00:09:43;102207.75;;;9.43;58.99
76311;BME280;65120;59.304;18.294;2023-06-05T00:12:12;102205.09;;;9.42;58.96
76311;BME280;65120;59.304;18.294;2023-06-05T00:14:42;102220.72;;;9.39;58.99
76311;BME280;65120;59.304;18.294;2023-06-05T00:17:09;102212.88;;;9.34;58.73
76311;BME280;65120;59.304;18.294;2023-06-05T00:19:39;102212.78;;;9.27;58.79
76311;BME280;65120;59.304;18.294;2023-06-05T00:22:09;102217.13;;;9.28;59.31
76311;BME280;65120;59.304;18.294;2023-06-05T00:24:36;102209.25;;;9.21;59.49
76311;BME280;65120;59.304;18.294;2023-06-05T00:27:04;102210.13;;;9.20;59.20
76311;BME280;65120;59.304;18.294;2023-06-05T00:29:31;102221.41;;;9.18;59.49
76311;BME280;65120;59.304;18.294;2023-06-05T00:32:00;102218.78;;;9.16;59.78
76311;BME280;65120;59.304;18.294;2023-06-05T00:34:29;102205.66;;;9.09;59.62
76311;BME280;65120;59.304;18.294;2023-06-05T00:36:56;102217.00;;;9.11;59.61
76311;BME280;65120;59.304;18.294;2023-06-05T00:39:24;102208.25;;;9.07;59.50
76311;BME280;65120;59.304;18.294;2023-06-05T00:41:51;102213.44;;;9.06;59.81
76311;BME280;65120;59.304;18.294;2023-06-05T00:44:18;102202.97;;;9.01;60.20
76311;BME280;65120;59.304;18.294;2023-06-05T00:46:47;102206.44;;;9.00;59.83
76311;BME280;65120;59.304;18.294;2023-06-05T00:49:20;102205.53;;;8.98;60.02
76311;BME280;65120;59.304;18.294;2023-06-05T00:51:47;102207.25;;;8.96;60.03
76311;BME280;65120;59.304;18.294;2023-06-05T00:54:14;102195.97;;;8.94;59.97
76311;BME280;65120;59.304;18.294;2023-06-05T00:56:42;102204.56;;;8.90;60.46
76311;BME280;65120;59.304;18.294;2023-06-05T00:59:10;102200.22;;;8.89;60.41
76311;BME280;65120;59.304;18.294;2023-06-05T01:01:37;102200.19;;;8.86;60.17
76311;BME280;65120;59.304;18.294;2023-06-05T01:04:06;102176.59;;;8.73;60.18
76311;BME280;65120;59.304;18.294;2023-06-05T01:06:34;102203.59;;;8.82;60.58
76311;BME280;65120;59.304;18.294;2023-06-05T01:09:04;102192.31;;;8.80;60.56
76311;BME280;65120;59.304;18.294;2023-06-05T01:11:37;102196.63;;;8.79;60.82
76311;BME280;65120;59.304;18.294;2023-06-05T01:14:11;102200.06;;;8.76;60.75
76311;BME280;65120;59.304;18.294;2023-06-05T01:16:42;102184.41;;;8.73;60.77
76311;BME280;65120;59.304;18.294;2023-06-05T01:19:13;102180.94;;;8.73;61.03
76311;BME280;65120;59.304;18.294;2023-06-05T01:21:42;102173.09;;;8.68;60.75
76311;BME280;65120;59.304;18.294;2023-06-05T01:24:10;102176.56;;;8.70;60.90
76311;BME280;65120;59.304;18.294;2023-06-05T01:26:45;102178.28;;;8.68;60.59
76311;BME280;65120;59.304;18.294;2023-06-05T01:29:23;102165.19;;;8.64;60.73
76311;BME280;65120;59.304;18.294;2023-06-05T01:31:55;102165.19;;;8.64;60.55
76311;BME280;65120;59.304;18.294;2023-06-05T01:34:25;102169.53;;;8.63;60.91
76311;BME280;65120;59.304;18.294;2023-06-05T01:36:55;102164.28;;;8.60;61.15
76311;BME280;65120;59.304;18.294;2023-06-05T01:39:25;102168.59;;;8.58;60.98
76311;BME280;65120;59.304;18.294;2023-06-05T01:41:54;102170.31;;;8.56;61.36
76311;BME280;65120;59.304;18.294;2023-06-05T01:44:21;102179.84;;;8.54;61.00
76311;BME280;65120;59.304;18.294;2023-06-05T01:46:49;102172.88;;;8.53;61.29
76311;BME280;65120;59.304;18.294;2023-06-05T01:49:16;102165.91;;;8.49;61.23
76311;BME280;65120;59.304;18.294;2023-06-05T01:51:43;102174.59;;;8.51;61.08
76311;BME280;65120;59.304;18.294;2023-06-05T01:54:10;102178.03;;;8.50;61.24
76311;BME280;65120;59.304;18.294;2023-06-05T01:56:39;102174.59;;;8.51;61.56
76311;BME280;65120;59.304;18.294;2023-06-05T01:59:06;102170.22;;;8.48;61.63
76311;BME280;65120;59.304;18.294;2023-06-05T02:01:33;102169.34;;;8.46;61.86
76311;BME280;65120;59.304;18.294;2023-06-05T02:04:01;102174.56;;;8.49;61.85
76311;BME280;65120;59.304;18.294;2023-06-05T02:06:34;102169.34;;;8.48;61.74
76311;BME280;65120;59.304;18.294;2023-06-05T02:09:09;102171.09;;;8.49;61.48
76311;BME280;65120;59.304;18.294;2023-06-05T02:11:39;102172.84;;;8.48;62.14
76311;BME280;65120;59.304;18.294;2023-06-05T02:14:10;102177.16;;;8.48;61.95
76311;BME280;65120;59.304;18.294;2023-06-05T02:16:40;102178.88;;;8.47;61.99
76311;BME280;65120;59.304;18.294;2023-06-05T02:19:07;102167.56;;;8.44;62.07
76311;BME280;65120;59.304;18.294;2023-06-05T02:21:34;102165.00;;;8.45;61.87
76311;BME280;65120;59.304;18.294;2023-06-05T02:24:03;102158.81;;;8.39;62.23
76311;BME280;65120;59.304;18.294;2023-06-05T02:26:30;102176.28;;;8.46;62.48
76311;BME280;65120;59.304;18.294;2023-06-05T02:28:58;102172.81;;;8.45;62.45
76311;BME280;65120;59.304;18.294;2023-06-05T02:31:25;102173.66;;;8.47;62.23
76311;BME280;65120;59.304;18.294;2023-06-05T02:33:54;102172.75;;;8.44;62.44
76311;BME280;65120;59.304;18.294;2023-06-05T02:36:22;102174.53;;;8.48;62.40
76311;BME280;65120;59.304;18.294;2023-06-05T02:38:50;102174.53;;;8.48;62.46
76311;BME280;65120;59.304;18.294;2023-06-05T02:41:17;102176.31;;;8.49;62.57
76311;BME280;65120;59.304;18.294;2023-06-05T02:43:44;102163.28;;;8.50;62.57
76311;BME280;65120;59.304;18.294;2023-06-05T02:46:13;102163.25;;;8.47;62.83
76311;BME280;65120;59.304;18.294;2023-06-05T02:48:39;102176.34;;;8.52;63.05
76311;BME280;65120;59.304;18.294;2023-06-05T02:51:06;102165.94;;;8.52;62.70
76311;BME280;65120;59.304;18.294;2023-06-05T02:53:35;102162.47;;;8.53;62.79
76311;BME280;65120;59.304;18.294;2023-06-05T02:56:02;102162.47;;;8.53;62.95
76311;BME280;65120;59.304;18.294;2023-06-05T02:58:29;102164.22;;;8.54;63.00
76311;BME280;65120;59.304;18.294;2023-06-05T03:00:57;102169.44;;;8.55;63.42
76311;BME280;65120;59.304;18.294;2023-06-05T03:03:30;102158.16;;;8.56;63.16
76311;BME280;65120;59.304;18.294;2023-06-05T03:05:57;102172.94;;;8.59;63.46
76311;BME280;65120;59.304;18.294;2023-06-05T03:08:30;102169.50;;;8.60;63.12
76311;BME280;65120;59.304;18.294;2023-06-05T03:10:59;102163.47;;;8.63;63.64
76311;BME280;65120;59.304;18.294;2023-06-05T03:13:25;102156.50;;;8.63;63.75
76311;BME280;65120;59.304;18.294;2023-06-05T03:15:53;102157.41;;;8.65;63.48
76311;BME280;65120;59.304;18.294;2023-06-05T03:18:22;102157.41;;;8.67;63.70
76311;BME280;65120;59.304;18.294;2023-06-05T03:20:51;102155.72;;;8.70;64.34
76311;BME280;65120;59.304;18.294;2023-06-05T03:23:21;102159.22;;;8.72;64.27
76311;BME280;65120;59.304;18.294;2023-06-05T03:25:48;102160.13;;;8.76;64.18
76311;BME280;65120;59.304;18.294;2023-06-05T03:28:16;102161.03;;;8.78;64.65
76311;BME280;65120;59.304;18.294;2023-06-05T03:30:43;102159.31;;;8.82;64.64
76311;BME280;65120;59.304;18.294;2023-06-05T03:33:10;102161.94;;;8.85;65.02
76311;BME280;65120;59.304;18.294;2023-06-05T03:35:39;102158.53;;;8.89;65.35
76311;BME280;65120;59.304;18.294;2023-06-05T03:38:08;102153.34;;;8.93;65.38
76311;BME280;65120;59.304;18.294;2023-06-05T03:40:35;102154.28;;;8.98;65.66
76311;BME280;65120;59.304;18.294;2023-06-05T03:43:04;102155.25;;;9.05;65.46
76311;BME280;65120;59.304;18.294;2023-06-05T03:45:31;102152.69;;;9.11;66.05
76311;BME280;65120;59.304;18.294;2023-06-05T03:47:59;102145.78;;;9.16;66.16
76311;BME280;65120;59.304;18.294;2023-06-05T03:50:26;102151.91;;;9.24;66.23
76311;BME280;65120;59.304;18.294;2023-06-05T03:52:56;102145.03;;;9.30;66.29
76311;BME280;65120;59.304;18.294;2023-06-05T03:55:31;102150.34;;;9.42;66.01
76311;BME280;65120;59.304;18.294;2023-06-05T03:58:08;102133.03;;;9.52;65.78
76311;BME280;65120;59.304;18.294;2023-06-05T04:00:35;102134.84;;;9.60;65.71
76311;BME280;65120;59.304;18.294;2023-06-05T04:03:02;102146.19;;;9.70;65.36
76311;BME280;65120;59.304;18.294;2023-06-05T04:05:30;102138.47;;;9.81;65.46
76311;BME280;65120;59.304;18.294;2023-06-05T04:07:56;102142.03;;;9.90;65.21
76311;BME280;65120;59.304;18.294;2023-06-05T04:10:23;102129.84;;;9.99;65.74
76311;BME280;65120;59.304;18.294;2023-06-05T04:12:52;102126.41;;;10.07;65.73
76311;BME280;65120;59.304;18.294;2023-06-05T04:15:19;102128.25;;;10.19;65.36
76311;BME280;65120;59.304;18.294;2023-06-05T04:17:45;102130.91;;;10.30;65.57
76311;BME280;65120;59.304;18.294;2023-06-05T04:20:12;102134.44;;;10.41;65.31
76311;BME280;65120;59.304;18.294;2023-06-05T04:22:40;102134.50;;;10.53;64.98
76311;BME280;65120;59.304;18.294;2023-06-05T04:25:08;102136.31;;;10.68;64.95
76311;BME280;65120;59.304;18.294;2023-06-05T04:27:37;102128.47;;;10.80;64.85
76311;BME280;65120;59.304;18.294;2023-06-05T04:30:08;102132.00;;;10.96;64.99
76311;BME280;65120;59.304;18.294;2023-06-05T04:32:38;102127.66;;;11.12;64.43
76311;BME280;65120;59.304;18.294;2023-06-05T04:35:06;102132.91;;;11.29;64.25
76311;BME280;65120;59.304;18.294;2023-06-05T04:37:34;102131.16;;;11.43;63.95
76311;BME280;65120;59.304;18.294;2023-06-05T04:40:02;102122.41;;;11.58;63.09
76311;BME280;65120;59.304;18.294;2023-06-05T04:42:31;102129.38;;;11.76;62.97
76311;BME280;65120;59.304;18.294;2023-06-05T04:45:00;102130.25;;;11.95;63.05
76311;BME280;65120;59.304;18.294;2023-06-05T04:47:31;102125.84;;;12.11;62.64
76311;BME280;65120;59.304;18.294;2023-06-05T04:49:59;102124.91;;;12.29;62.17
76311;BME280;65120;59.304;18.294;2023-06-05T04:52:26;102118.72;;;12.47;61.82
76311;BME280;65120;59.304;18.294;2023-06-05T04:54:55;102116.88;;;12.64;61.78
76311;BME280;65120;59.304;18.294;2023-06-05T04:57:22;102118.53;;;12.83;61.07
76311;BME280;65120;59.304;18.294;2023-06-05T04:59:49;102121.00;;;13.02;60.53
76311;BME280;65120;59.304;18.294;2023-06-05T05:02:17;102118.22;;;13.20;59.72
76311;BME280;65120;59.304;18.294;2023-06-05T05:04:46;102111.97;;;13.40;59.51
76311;BME280;65120;59.304;18.294;2023-06-05T05:07:13;102114.44;;;13.57;58.86
76311;BME280;65120;59.304;18.294;2023-06-05T05:09:41;102112.56;;;13.72;58.30
76311;BME280;65120;59.304;18.294;2023-06-05T05:12:07;102113.19;;;13.96;57.98
76311;BME280;65120;59.304;18.294;2023-06-05T05:14:35;102109.47;;;14.15;57.31
76311;BME280;65120;59.304;18.294;2023-06-05T05:17:02;102110.97;;;14.35;57.13
76311;BME280;65120;59.304;18.294;2023-06-05T05:19:30;102115.13;;;14.51;56.96
76311;BME280;65120;59.304;18.294;2023-06-05T05:21:58;102112.28;;;14.68;56.44
76311;BME280;65120;59.304;18.294;2023-06-05T05:24:25;102098.09;;;14.81;56.12
76311;BME280;65120;59.304;18.294;2023-06-05T05:26:52;102103.03;;;15.01;55.48
76311;BME280;65120;59.304;18.294;2023-06-05T05:29:19;102105.38;;;15.20;55.13
76311;BME280;65120;59.304;18.294;2023-06-05T05:31:46;102105.13;;;15.35;54.85
76311;BME280;65120;59.304;18.294;2023-06-05T05:34:13;102102.22;;;15.50;54.21
76311;BME280;65120;59.304;18.294;2023-06-05T05:36:40;102100.19;;;15.66;54.05
76311;BME280;65120;59.304;18.294;2023-06-05T05:39:08;102099.06;;;15.81;53.68
76311;BME280;65120;59.304;18.294;2023-06-05T05:41:35;102099.72;;;15.92;53.49
76311;BME280;65120;59.304;18.294;2023-06-05T05:44:02;102102.03;;;16.08;52.63
76311;BME280;65120;59.304;18.294;2023-06-05T05:46:29;102094.78;;;16.19;52.37
76311;BME280;65120;59.304;18.294;2023-06-05T05:48:59;102095.34;;;16.33;52.02
76311;BME280;65120;59.304;18.294;2023-06-05T05:51:26;102093.34;;;16.45;51.76
76311;BME280;65120;59.304;18.294;2023-06-05T05:53:53;102097.47;;;16.58;51.69
76311;BME280;65120;59.304;18.294;2023-06-05T05:56:22;102088.44;;;16.68;51.41
76311;BME280;65120;59.304;18.294;2023-06-05T05:58:49;102082.97;;;16.76;50.47
76311;BME280;65120;59.304;18.294;2023-06-05T06:01:16;102091.50;;;16.89;50.59
76311;BME280;65120;59.304;18.294;2023-06-05T06:03:43;102096.63;;;16.96;49.93
76311;BME280;65120;59.304;18.294;2023-06-05T06:06:10;102086.69;;;17.06;49.61
76311;BME280;65120;59.304;18.294;2023-06-05T06:08:37;102081.41;;;17.06;49.31
76311;BME280;65120;59.304;18.294;2023-06-05T06:11:04;102089.94;;;17.17;48.79
76311;BME280;65120;59.304;18.294;2023-06-05T06:13:33;102089.75;;;17.25;48.67
76311;BME280;65120;59.304;18.294;2023-06-05T06:16:00;102087.84;;;17.30;48.47
76311;BME280;65120;59.304;18.294;2023-06-05T06:18:29;102090.28;;;17.38;47.80
76311;BME280;65120;59.304;18.294;2023-06-05T06:20:57;102089.31;;;17.42;47.32
76311;BME280;65120;59.304;18.294;2023-06-05T06:23:25;102082.94;;;17.49;46.67
76311;BME280;65120;59.304;18.294;2023-06-05T06:25:52;102096.06;;;17.53;46.93
76311;BME280;65120;59.304;18.294;2023-06-05T06:28:19;102092.38;;;17.59;46.45
76311;BME280;65120;59.304;18.294;2023-06-05T06:30:47;102091.34;;;17.65;46.15
76311;BME280;65120;59.304;18.294;2023-06-05T06:33:14;102098.25;;;17.70;45.83
76311;BME280;65120;59.304;18.294;2023-06-05T06:35:41;102097.25;;;17.74;46.02
76311;BME280;65120;59.304;18.294;2023-06-05T06:38:08;102090.97;;;17.79;45.34
76311;BME280;65120;59.304;18.294;2023-06-05T06:40:35;102089.09;;;17.84;44.93
76311;BME280;65120;59.304;18.294;2023-06-05T06:43:02;102089.78;;;17.90;44.68
76311;BME280;65120;59.304;18.294;2023-06-05T06:45:29;102090.56;;;17.94;45.08
76311;BME280;65120;59.304;18.294;2023-06-05T06:47:58;102088.66;;;17.99;44.95
76311;BME280;65120;59.304;18.294;2023-06-05T06:50:25;102082.47;;;18.00;44.87
76311;BME280;65120;59.304;18.294;2023-06-05T06:52:52;102086.59;;;18.10;44.38
76311;BME280;65120;59.304;18.294;2023-06-05T06:55:19;102087.28;;;18.15;44.62
76311;BME280;65120;59.304;18.294;2023-06-05T06:57:46;102083.47;;;18.26;43.86
76311;BME280;65120;59.304;18.294;2023-06-05T07:00:14;102087.63;;;18.34;43.83
76311;BME280;65120;59.304;18.294;2023-06-05T07:02:41;102087.41;;;18.42;43.26
76311;BME280;65120;59.304;18.294;2023-06-05T07:05:10;102088.75;;;18.55;43.26
76311;BME280;65120;59.304;18.294;2023-06-05T07:07:38;102087.59;;;18.64;43.33
76311;BME280;65120;59.304;18.294;2023-06-05T07:10:06;102079.41;;;18.72;42.84
76311;BME280;65120;59.304;18.294;2023-06-05T07:12:33;102074.81;;;18.78;42.72
76311;BME280;65120;59.304;18.294;2023-06-05T07:15:00;102080.69;;;18.88;42.48
76311;BME280;65120;59.304;18.294;2023-06-05T07:17:28;102076.84;;;18.98;42.18
76311;BME280;65120;59.304;18.294;2023-06-05T07:19:55;102073.88;;;19.07;41.70
76311;BME280;65120;59.304;18.294;2023-06-05T07:22:25;102079.91;;;19.13;42.05
76311;BME280;65120;59.304;18.294;2023-06-05T07:24:53;102072.44;;;19.24;41.22
76311;BME280;65120;59.304;18.294;2023-06-05T07:27:21;102076.50;;;19.34;41.26
76311;BME280;65120;59.304;18.294;2023-06-05T07:29:49;102059.69;;;19.35;40.87
76311;BME280;65120;59.304;18.294;2023-06-05T07:32:18;102073.16;;;19.54;40.83
76311;BME280;65120;59.304;18.294;2023-06-05T07:34:46;102074.56;;;19.64;40.67
76311;BME280;65120;59.304;18.294;2023-06-05T07:37:13;102070.75;;;19.73;40.25
76311;BME280;65120;59.304;18.294;2023-06-05T07:39:43;102069.50;;;19.83;39.64
76311;BME280;65120;59.304;18.294;2023-06-05T07:42:10;102057.75;;;19.90;39.78
76311;BME280;65120;59.304;18.294;2023-06-05T07:44:37;102067.03;;;20.02;39.50
76311;BME280;65120;59.304;18.294;2023-06-05T07:47:04;102056.13;;;20.10;39.66
76311;BME280;65120;59.304;18.294;2023-06-05T07:49:31;102063.63;;;20.22;39.43
76311;BME280;65120;59.304;18.294;2023-06-05T07:51:59;102064.88;;;20.35;39.06
76311;BME280;65120;59.304;18.294;2023-06-05T07:54:26;102067.16;;;20.44;38.59
76311;BME280;65120;59.304;18.294;2023-06-05T07:56:55;102060.69;;;20.52;38.39
76311;BME280;65120;59.304;18.294;2023-06-05T07:59:22;102061.28;;;20.60;38.09
76311;BME280;65120;59.304;18.294;2023-06-05T08:01:53;102054.81;;;20.67;38.41
76311;BME280;65120;59.304;18.294;2023-06-05T08:04:22;102056.28;;;20.74;37.89
76311;BME280;65120;59.304;18.294;2023-06-05T08:06:51;102057.91;;;20.78;38.10
76311;BME280;65120;59.304;18.294;2023-06-05T08:09:18;102059.34;;;20.85;37.71
76311;BME280;65120;59.304;18.294;2023-06-05T08:11:45;102045.81;;;20.92;37.65
76311;BME280;65120;59.304;18.294;2023-06-05T08:14:14;102049.16;;;20.97;37.15
76311;BME280;65120;59.304;18.294;2023-06-05T08:16:41;102047.03;;;21.05;37.51
76311;BME280;65120;59.304;18.294;2023-06-05T08:19:08;102045.88;;;21.12;37.76
76311;BME280;65120;59.304;18.294;2023-06-05T08:21:35;102023.13;;;21.05;37.51
76311;BME280;65120;59.304;18.294;2023-06-05T08:24:03;102047.84;;;21.27;37.42
76311;BME280;65120;59.304;18.294;2023-06-05T08:26:30;102048.41;;;21.36;37.60
76311;BME280;65120;59.304;18.294;2023-06-05T08:28:59;102039.31;;;21.41;37.06
76311;BME280;65120;59.304;18.294;2023-06-05T08:31:27;102036.34;;;21.49;36.79
76311;BME280;65120;59.304;18.294;2023-06-05T08:33:54;102032.47;;;21.56;36.62
76311;BME280;65120;59.304;18.294;2023-06-05T08:36:21;102040.09;;;21.64;36.54
76311;BME280;65120;59.304;18.294;2023-06-05T08:38:49;102032.69;;;21.70;36.67
76311;BME280;65120;59.304;18.294;2023-06-05T08:41:16;102027.09;;;21.76;36.31
76311;BME280;65120;59.304;18.294;2023-06-05T08:43:44;102013.81;;;21.76;36.33
76311;BME280;65120;59.304;18.294;2023-06-05T08:46:11;102015.16;;;21.85;36.02
76311;BME280;65120;59.304;18.294;2023-06-05T08:48:44;102028.84;;;21.96;36.01
76311;BME280;65120;59.304;18.294;2023-06-05T08:51:12;102016.13;;;22.03;35.79
76311;BME280;65120;59.304;18.294;2023-06-05T08:53:41;102016.75;;;22.08;35.83
76311;BME280;65120;59.304;18.294;2023-06-05T08:56:11;102013.84;;;22.14;35.68
76311;BME280;65120;59.304;18.294;2023-06-05T08:58:38;102017.94;;;22.21;35.55
76311;BME280;65120;59.304;18.294;2023-06-05T09:01:05;102009.66;;;22.28;35.43
76311;BME280;65120;59.304;18.294;2023-06-05T09:03:33;102006.69;;;22.34;34.95
76311;BME280;65120;59.304;18.294;2023-06-05T09:06:01;102007.34;;;22.39;35.42
76311;BME280;65120;59.304;18.294;2023-06-05T09:08:32;102004.38;;;22.45;35.02
76311;BME280;65120;59.304;18.294;2023-06-05T09:11:23;101999.63;;;22.52;34.94
76311;BME280;65120;59.304;18.294;2023-06-05T09:13:53;101998.47;;;22.57;34.38
76311;BME280;65120;59.304;18.294;2023-06-05T09:16:21;102004.41;;;22.62;33.94
76311;BME280;65120;59.304;18.294;2023-06-05T09:18:56;101994.34;;;22.69;34.06
76311;BME280;65120;59.304;18.294;2023-06-05T09:21:26;101987.91;;;22.73;33.88
76311;BME280;65120;59.304;18.294;2023-06-05T09:24:14;101994.66;;;22.80;34.33
76311;BME280;65120;59.304;18.294;2023-06-05T09:27:02;101989.88;;;22.87;34.28
76311;BME280;65120;59.304;18.294;2023-06-05T09:29:31;101989.56;;;22.93;33.74
76311;BME280;65120;59.304;18.294;2023-06-05T09:32:00;101992.88;;;22.98;33.34
76311;BME280;65120;59.304;18.294;2023-06-05T09:34:28;101982.84;;;23.03;33.66
76311;BME280;65120;59.304;18.294;2023-06-05T09:36:58;101984.41;;;23.07;33.35
76311;BME280;65120;59.304;18.294;2023-06-05T09:39:26;101985.81;;;23.15;33.26
76311;BME280;65120;59.304;18.294;2023-06-05T09:41:55;101978.69;;;23.15;32.96
76311;BME280;65120;59.304;18.294;2023-06-05T09:44:23;101974.31;;;23.14;33.17
76311;BME280;65120;59.304;18.294;2023-06-05T09:46:51;101975.31;;;23.11;33.27
76311;BME280;65120;59.304;18.294;2023-06-05T09:49:19;101968.88;;;23.16;32.69
76311;BME280;65120;59.304;18.294;2023-06-05T09:51:47;101968.72;;;23.19;32.53
76311;BME280;65120;59.304;18.294;2023-06-05T09:54:15;101968.50;;;23.23;32.07
76311;BME280;65120;59.304;18.294;2023-06-05T09:56:46;101958.63;;;23.25;32.07
76311;BME280;65120;59.304;18.294;2023-06-05T09:59:18;101948.63;;;23.29;31.65
76311;BME280;65120;59.304;18.294;2023-06-05T10:01:48;101950.19;;;23.33;32.17
76311;BME280;65120;59.304;18.294;2023-06-05T10:04:20;101958.00;;;23.36;32.46
76311;BME280;65120;59.304;18.294;2023-06-05T10:06:47;101945.41;;;23.40;32.49
76311;BME280;65120;59.304;18.294;2023-06-05T10:09:16;101951.25;;;23.46;32.50
76311;BME280;65120;59.304;18.294;2023-06-05T10:11:48;101959.09;;;23.49;32.35
76311;BME280;65120;59.304;18.294;2023-06-05T10:14:15;101956.44;;;23.49;32.33
76311;BME280;65120;59.304;18.294;2023-06-05T10:16:43;101951.09;;;23.49;32.57
76311;BME280;65120;59.304;18.294;2023-06-05T10:19:11;101952.63;;;23.53;32.29
76311;BME280;65120;59.304;18.294;2023-06-05T10:21:39;101950.75;;;23.55;32.03
76311;BME280;65120;59.304;18.294;2023-06-05T10:24:21;101946.28;;;23.56;31.88
76311;BME280;65120;59.304;18.294;2023-06-05T10:33:06;101935.13;;;23.65;31.05
76311;BME280;65120;59.304;18.294;2023-06-05T10:35:50;101934.16;;;23.66;31.27
76311;BME280;65120;59.304;18.294;2023-06-05T10:38:21;101933.22;;;23.67;31.27
76311;BME280;65120;59.304;18.294;2023-06-05T10:40:54;101934.81;;;23.71;30.98
76311;BME280;65120;59.304;18.294;2023-06-05T10:43:28;101921.38;;;23.73;30.97
76311;BME280;65120;59.304;18.294;2023-06-05T10:45:56;101920.44;;;23.74;30.99
76311;BME280;65120;59.304;18.294;2023-06-05T10:49:05;101927.50;;;23.75;31.45
76311;BME280;65120;59.304;18.294;2023-06-05T10:51:34;101925.69;;;23.75;30.18
76311;BME280;65120;59.304;18.294;2023-06-05T10:54:03;101921.38;;;23.73;30.15
76311;BME280;65120;59.304;18.294;2023-06-05T10:56:55;101917.78;;;23.74;30.29
76311;BME280;65120;59.304;18.294;2023-06-05T10:59:23;101917.84;;;23.72;30.53
76311;BME280;65120;59.304;18.294;2023-06-05T11:02:24;101910.53;;;23.76;29.98
76311;BME280;65120;59.304;18.294;2023-06-05T11:05:08;101899.31;;;23.69;30.29
76311;BME280;65120;59.304;18.294;2023-06-05T11:07:36;101910.28;;;23.81;29.97
76311;BME280;65120;59.304;18.294;2023-06-05T11:10:10;101897.13;;;23.77;30.52
76311;BME280;65120;59.304;18.294;2023-06-05T11:13:01;101908.97;;;23.88;30.34
76311;BME280;65120;59.304;18.294;2023-06-05T11:15:42;101902.59;;;23.90;30.08
76311;BME280;65120;59.304;18.294;2023-06-05T11:18:31;101902.44;;;23.93;29.67
76311;BME280;65120;59.304;18.294;2023-06-05T11:20:59;101891.34;;;23.85;29.73
76311;BME280;65120;59.304;18.294;2023-06-05T11:23:27;101903.31;;;23.94;29.60
76311;BME280;65120;59.304;18.294;2023-06-05T11:29:00;101892.53;;;23.95;30.06
76311;BME280;65120;59.304;18.294;2023-06-05T11:31:28;101899.50;;;23.98;29.83
76311;BME280;65120;59.304;18.294;2023-06-05T11:33:58;101899.34;;;24.01;29.96
76311;BME280;65120;59.304;18.294;2023-06-05T11:36:25;101890.38;;;24.02;29.86
76311;BME280;65120;59.304;18.294;2023-06-05T11:38:53;101885.81;;;24.04;29.79
76311;BME280;65120;59.304;18.294;2023-06-05T11:41:21;101874.47;;;24.00;29.68
76311;BME280;65120;59.304;18.294;2023-06-05T11:43:50;101887.63;;;24.04;29.52
76311;BME280;65120;59.304;18.294;2023-06-05T11:46:18;101882.22;;;24.05;29.20
76311;BME280;65120;59.304;18.294;2023-06-05T11:48:46;101882.28;;;24.04;29.40
76311;BME280;65120;59.304;18.294;2023-06-05T11:51:15;101882.28;;;24.04;29.79
76311;BME280;65120;59.304;18.294;2023-06-05T11:53:46;101879.53;;;24.05;29.88
76311;BME280;65120;59.304;18.294;2023-06-05T11:56:16;101876.75;;;24.07;29.30
76311;BME280;65120;59.304;18.294;2023-06-05T11:58:43;101871.44;;;24.07;29.28
76311;BME280;65120;59.304;18.294;2023-06-05T12:01:14;101871.34;;;24.08;29.57
76311;BME280;65120;59.304;18.294;2023-06-05T12:03:45;101870.22;;;24.12;29.46
76311;BME280;65120;59.304;18.294;2023-06-05T12:06:16;101867.47;;;24.14;29.25
76311;BME280;65120;59.304;18.294;2023-06-05T12:08:44;101866.44;;;24.16;29.53
76311;BME280;65120;59.304;18.294;2023-06-05T12:11:21;101864.50;;;24.18;29.99
76311;BME280;65120;59.304;18.294;2023-06-05T12:13:50;101864.44;;;24.20;29.55
76311;BME280;65120;59.304;18.294;2023-06-05T12:16:18;101863.47;;;24.21;29.09
76311;BME280;65120;59.304;18.294;2023-06-05T12:18:47;101865.22;;;24.22;29.36
76311;BME280;65120;59.304;18.294;2023-06-05T12:21:22;101867.88;;;24.22;29.42
76311;BME280;65120;59.304;18.294;2023-06-05T12:23:50;101859.09;;;24.20;29.13
76311;BME280;65120;59.304;18.294;2023-06-05T12:26:18;101859.69;;;24.25;29.52
76311;BME280;65120;59.304;18.294;2023-06-05T12:28:45;101857.88;;;24.26;29.42
76311;BME280;65120;59.304;18.294;2023-06-05T12:31:33;101860.44;;;24.27;29.44
76311;BME280;65120;59.304;18.294;2023-06-05T12:34:03;101851.56;;;24.27;29.63
76311;BME280;65120;59.304;18.294;2023-06-05T12:36:31;101850.91;;;24.23;29.66
76311;BME280;65120;59.304;18.294;2023-06-05T12:39:02;101849.00;;;24.25;30.13
76311;BME280;65120;59.304;18.294;2023-06-05T12:41:32;101846.22;;;24.27;30.53
76311;BME280;65120;59.304;18.294;2023-06-05T12:44:00;101841.00;;;24.25;30.76
76311;BME280;65120;59.304;18.294;2023-06-05T12:46:30;101834.69;;;24.26;30.65
76311;BME280;65120;59.304;18.294;2023-06-05T12:48:57;101838.16;;;24.28;30.87
76311;BME280;65120;59.304;18.294;2023-06-05T12:51:27;101842.59;;;24.28;30.80
76311;BME280;65120;59.304;18.294;2023-06-05T12:53:54;101840.22;;;24.23;30.56
76311;BME280;65120;59.304;18.294;2023-06-05T12:56:22;101831.06;;;24.27;30.27
76311;BME280;65120;59.304;18.294;2023-06-05T12:58:51;101836.41;;;24.27;30.47
76311;BME280;65120;59.304;18.294;2023-06-05T13:01:19;101840.03;;;24.26;30.69
76311;BME280;65120;59.304;18.294;2023-06-05T13:03:46;101848.81;;;24.28;30.34